Willmar, Minnesota
Current Conditions -  °F | °C
As of 1:35 PM on Tuesday 21 Oct 2014 (Local Time) from KBDH Reporting Station
Clear Clear  
Wind Chill: 63°   Ceiling: Unl
Heat Index: 63°   Visibility: 10mi
Dew Point: 39°   Wind: 17mph
Humidity: 42%   Direction: 140°SE
Pressure: 30.1"   Gusts: 25mph
Location:  45.12°N, 95.05°W
Report Text: KBDH 211835Z AUTO 14015G22KT 10SM CLR 17/04 A3010 RMK AO2
Loading
Personal Weather Stations






























Interactive Weather Map
Tropical Storm Tracking
New forecast layout! Learn more

10-Day Weather Forecast

Advertisements
Track Severe Weather on mobile